Terminal Aerodrome Forecast
Issued by NWS Jacksonville, FL

Current Version | Previous Version | Text Only | Print | Product List | Glossary On
Versions: 1 2 3 4 5 6 7 8 9 10 11 12 13 14 15 16 17 18 19 20 21 22 23 24 25 26
000
FTUS42 KJAX 081217 AAA
TAFGNV
TAF AMD
KGNV 081217Z 0812/0912 31002KT 6SM BR FEW002 SCT250
      TEMPO 0812/0813 4SM BR BKN002
     FM081330 32008KT P6SM BKN250=

USA.gov is the U.S. government's official web portal to all federal, state and local government web resources and services.